Time;durP1;ratioP1;P1;durP2;ratioP2;P2;SDS_P1;SDS_P2;PMS_P1;PMS_P2;Temp;Humidity;BMP_temperature;BMP_pressure;BME280_temperature;BME280_humidity;BME280_pressure;Samples;Min_cycle;Max_cycle;Signal;HPM_P1;HPM_P2
2021/04/24 00:01:06;;;;;;;1.25;0.90;;;6.00;62.60;;;;;;5033741;28;20027;-72
2021/04/24 00:03:32;;;;;;;0.77;0.70;;;5.90;62.50;;;;;;5033450;28;20041;-73
2021/04/24 00:05:57;;;;;;;1.48;0.95;;;5.90;62.50;;;;;;5032644;28;20064;-72
2021/04/24 00:08:23;;;;;;;2.13;0.90;;;5.90;62.50;;;;;;5032645;28;20025;-72
2021/04/24 00:10:49;;;;;;;0.98;0.77;;;5.90;62.50;;;;;;5033589;28;20041;-72
2021/04/24 00:13:15;;;;;;;0.60;0.57;;;5.90;62.60;;;;;;5033717;28;20465;-73
2021/04/24 00:15:43;;;;;;;0.70;0.70;;;5.90;62.60;;;;;;5033696;28;20389;-73
2021/04/24 00:18:09;;;;;;;1.20;1.10;;;5.90;62.60;;;;;;5033282;28;20018;-73
2021/04/24 00:20:35;;;;;;;1.23;1.08;;;5.90;62.60;;;;;;5033459;28;20052;-73
2021/04/24 00:23:01;;;;;;;1.00;0.80;;;5.80;62.60;;;;;;5033517;28;20026;-73
2021/04/24 00:25:27;;;;;;;0.90;0.77;;;5.90;62.70;;;;;;5033533;28;20036;-73
2021/04/24 00:27:55;;;;;;;0.85;0.68;;;5.80;62.70;;;;;;5033484;28;20014;-73
2021/04/24 00:30:21;;;;;;;1.45;0.90;;;5.80;62.80;;;;;;5033182;28;20056;-73
2021/04/24 00:32:47;;;;;;;0.95;0.95;;;5.80;62.80;;;;;;5032884;28;20525;-73
2021/04/24 00:35:16;;;;;;;0.82;0.80;;;5.80;63.20;;;;;;5033449;28;20425;-73
2021/04/24 00:37:41;;;;;;;1.30;1.13;;;5.80;63.00;;;;;;5032081;28;20036;-73
2021/04/24 00:40:08;;;;;;;0.60;0.60;;;5.70;62.90;;;;;;5033340;28;20021;-73
2021/04/24 00:42:35;;;;;;;1.38;0.90;;;5.70;63.00;;;;;;5033276;28;20018;-73
2021/04/24 00:45:00;;;;;;;1.35;0.75;;;5.70;63.00;;;;;;5033257;28;20104;-72
2021/04/24 00:47:27;;;;;;;1.10;1.00;;;5.70;63.10;;;;;;5031491;28;20104;-72
2021/04/24 00:49:53;;;;;;;0.50;0.50;;;5.70;63.10;;;;;;5031942;28;20037;-72
2021/04/24 00:52:19;;;;;;;0.57;0.57;;;5.70;63.10;;;;;;5033222;28;20025;-72
2021/04/24 00:54:44;;;;;;;1.13;1.00;;;5.70;63.10;;;;;;5033258;28;20029;-72
2021/04/24 00:57:11;;;;;;;1.48;0.98;;;5.70;63.20;;;;;;5033025;28;20108;-72
2021/04/24 00:59:37;;;;;;;0.85;0.68;;;5.70;63.20;;;;;;5035317;28;20029;-73
2021/04/24 01:02:03;;;;;;;0.60;0.60;;;5.70;63.30;;;;;;5036749;28;20021;-73
2021/04/24 01:04:29;;;;;;;0.70;0.70;;;5.60;63.30;;;;;;5037261;28;20029;-73
2021/04/24 01:06:55;;;;;;;1.25;0.95;;;5.60;63.40;;;;;;5037113;28;20045;-73
2021/04/24 01:09:20;;;;;;;0.57;0.57;;;5.60;63.60;;;;;;5037312;28;20103;-73
2021/04/24 01:11:46;;;;;;;0.52;0.52;;;5.60;63.60;;;;;;5036996;28;20025;-73
2021/04/24 01:14:12;;;;;;;0.80;0.80;;;5.60;63.60;;;;;;5036984;28;20021;-73
2021/04/24 01:16:37;;;;;;;1.23;1.00;;;5.60;63.60;;;;;;5036387;28;20022;-73
2021/04/24 01:19:04;;;;;;;1.00;0.80;;;5.60;63.60;;;;;;5036960;28;20104;-73
2021/04/24 01:21:30;;;;;;;0.80;0.80;;;5.60;63.70;;;;;;5036906;28;20029;-73
2021/04/24 01:23:56;;;;;;;1.08;0.80;;;5.50;63.70;;;;;;5035569;28;20040;-73
2021/04/24 01:26:21;;;;;;;1.20;1.10;;;5.50;63.80;;;;;;5036825;28;20032;-73
2021/04/24 01:28:47;;;;;;;0.82;0.82;;;5.50;63.90;;;;;;5036645;28;20021;-73
2021/04/24 01:31:14;;;;;;;0.70;0.70;;;5.50;64.00;;;;;;5034912;28;20053;-73
2021/04/24 01:33:40;;;;;;;1.48;1.13;;;5.50;64.00;;;;;;5036545;28;20378;-73
2021/04/24 01:36:06;;;;;;;1.17;0.90;;;5.50;64.10;;;;;;5036836;28;20032;-73
2021/04/24 01:38:32;;;;;;;0.57;0.57;;;5.50;64.10;;;;;;5036682;28;20444;-73
2021/04/24 01:40:58;;;;;;;1.17;0.73;;;5.50;64.20;;;;;;5036458;28;20334;-73
2021/04/24 01:43:24;;;;;;;0.75;0.60;;;5.40;64.20;;;;;;5035316;28;20018;-73
2021/04/24 01:45:49;;;;;;;0.98;0.88;;;5.40;64.20;;;;;;5034675;28;20159;-73
2021/04/24 01:48:15;;;;;;;0.55;0.55;;;5.40;64.50;;;;;;5035092;28;20111;-73
2021/04/24 01:50:47;;;;;;;2.08;0.88;;;5.40;64.30;;;;;;5036337;28;20048;-73
2021/04/24 01:53:17;;;;;;;1.45;0.93;;;5.40;64.40;;;;;;5034999;28;20057;-73
2021/04/24 01:55:44;;;;;;;0.98;0.88;;;5.40;64.50;;;;;;5036342;28;20037;-73
2021/04/24 01:58:14;;;;;;;0.90;0.77;;;5.30;64.50;;;;;;5036251;28;20022;-73
2021/04/24 02:00:44;;;;;;;0.90;0.80;;;5.30;64.60;;;;;;5034429;28;20024;-74
2021/04/24 02:03:14;;;;;;;0.82;0.73;;;5.30;64.70;;;;;;5036160;28;20025;-72
2021/04/24 02:05:41;;;;;;;1.45;0.90;;;5.30;65.40;;;;;;5036140;28;20014;-73
2021/04/24 02:08:12;;;;;;;1.20;0.88;;;5.30;64.80;;;;;;5035829;28;20088;-73
2021/04/24 02:10:40;;;;;;;0.68;0.50;;;5.30;64.90;;;;;;5035701;28;20033;-73
2021/04/24 02:13:12;;;;;;;1.00;0.90;;;5.20;64.90;;;;;;5035934;28;20032;-73
2021/04/24 02:15:38;;;;;;;1.45;0.70;;;5.20;65.00;;;;;;5035490;28;20022;-73
2021/04/24 02:18:05;;;;;;;1.48;1.25;;;5.20;64.90;;;;;;5035859;28;20505;-72
2021/04/24 02:20:32;;;;;;;0.82;0.82;;;5.20;65.00;;;;;;5035824;28;20049;-72
2021/04/24 02:22:58;;;;;;;0.65;0.65;;;5.20;64.90;;;;;;5034312;28;20021;-72
2021/04/24 02:25:23;;;;;;;2.38;1.13;;;5.20;65.10;;;;;;5035628;28;20068;-72
2021/04/24 02:27:49;;;;;;;1.20;0.88;;;5.20;65.10;;;;;;5035796;28;20436;-72
2021/04/24 02:30:19;;;;;;;1.08;0.80;;;5.20;65.20;;;;;;5034925;28;20132;-72
2021/04/24 02:32:45;;;;;;;0.68;0.68;;;5.20;65.30;;;;;;5034281;28;20021;-73
2021/04/24 02:35:14;;;;;;;0.80;0.80;;;5.10;65.20;;;;;;5035419;28;20028;-73
2021/04/24 02:37:39;;;;;;;0.93;0.80;;;5.10;65.30;;;;;;5035412;28;20036;-73
2021/04/24 02:40:17;;;;;;;1.02;0.93;;;5.10;65.40;;;;;;5034093;28;20033;-73
2021/04/24 02:42:42;;;;;;;0.73;0.65;;;5.10;65.50;;;;;;5035445;28;20053;-73
2021/04/24 02:45:10;;;;;;;1.02;0.80;;;5.10;65.50;;;;;;5034906;28;20021;-73
2021/04/24 02:47:36;;;;;;;0.65;0.65;;;5.10;65.60;;;;;;5035082;28;20099;-73
2021/04/24 02:50:05;;;;;;;0.77;0.60;;;5.10;65.60;;;;;;5035258;28;20033;-73
2021/04/24 02:52:31;;;;;;;0.68;0.60;;;5.10;65.70;;;;;;5035248;28;20025;-73
2021/04/24 02:54:56;;;;;;;0.70;0.70;;;5.00;65.70;;;;;;5035006;28;20488;-73
2021/04/24 02:57:22;;;;;;;1.00;0.77;;;5.00;65.80;;;;;;5034743;28;20025;-73
2021/04/24 02:59:48;;;;;;;0.65;0.57;;;5.00;65.80;;;;;;5033831;28;20084;-73
2021/04/24 03:02:17;;;;;;;0.77;0.57;;;5.00;65.90;;;;;;5035027;28;20028;-73
2021/04/24 03:04:43;;;;;;;2.25;0.82;;;5.00;66.00;;;;;;5033691;28;20022;-73
2021/04/24 03:07:09;;;;;;;0.93;0.60;;;5.00;66.00;;;;;;5034868;28;20021;-73
2021/04/24 03:09:34;;;;;;;0.70;0.65;;;4.90;66.00;;;;;;5034884;28;20102;-73
2021/04/24 03:12:00;;;;;;;1.27;1.17;;;4.90;66.00;;;;;;5034337;28;20491;-73
2021/04/24 03:14:25;;;;;;;1.52;1.02;;;4.90;66.10;;;;;;5034698;28;20032;-73
2021/04/24 03:16:51;;;;;;;0.98;0.73;;;4.90;66.10;;;;;;5034802;28;20489;-73
2021/04/24 03:19:17;;;;;;;1.25;1.13;;;4.90;66.20;;;;;;5034842;28;20519;-72
2021/04/24 03:21:42;;;;;;;3.08;0.93;;;5.00;66.20;;;;;;5034170;28;20028;-72
2021/04/24 03:24:08;;;;;;;0.85;0.75;;;5.00;66.20;;;;;;5034663;28;20014;-72
2021/04/24 03:26:34;;;;;;;1.15;0.73;;;5.00;66.20;;;;;;5034188;28;20084;-72
2021/04/24 03:29:00;;;;;;;1.75;0.88;;;5.00;66.20;;;;;;5034542;28;20018;-72
2021/04/24 03:31:26;;;;;;;0.65;0.65;;;5.00;66.20;;;;;;5034223;28;20128;-72
2021/04/24 03:33:51;;;;;;;0.55;0.55;;;5.00;66.20;;;;;;5034616;28;20093;-73
2021/04/24 03:36:17;;;;;;;3.00;1.17;;;5.00;66.30;;;;;;5034283;28;20032;-73
2021/04/24 03:38:43;;;;;;;1.60;1.13;;;5.00;66.40;;;;;;5034392;28;20018;-73
2021/04/24 03:41:09;;;;;;;0.80;0.75;;;5.00;66.50;;;;;;5033976;28;20028;-73
2021/04/24 03:43:35;;;;;;;1.27;0.85;;;5.00;66.50;;;;;;5034102;28;20029;-73
2021/04/24 03:46:02;;;;;;;1.80;0.82;;;5.00;66.50;;;;;;5034323;28;20458;-73
2021/04/24 03:48:27;;;;;;;1.85;1.50;;;5.00;66.50;;;;;;5034147;28;20029;-73
2021/04/24 03:50:53;;;;;;;0.70;0.70;;;5.00;66.60;;;;;;5034083;28;20099;-73
2021/04/24 03:53:19;;;;;;;0.95;0.85;;;4.90;66.60;;;;;;5032795;28;20021;-73
2021/04/24 03:55:44;;;;;;;0.60;0.60;;;4.90;66.60;;;;;;5033506;28;20022;-73
2021/04/24 03:58:10;;;;;;;0.88;0.70;;;4.90;66.70;;;;;;5034126;28;20100;-73
2021/04/24 04:00:36;;;;;;;1.17;1.00;;;4.80;66.70;;;;;;5034053;28;20036;-73
2021/04/24 04:03:05;;;;;;;1.17;1.05;;;4.90;66.80;;;;;;5034067;28;20021;-74
2021/04/24 04:05:36;;;;;;;0.63;0.60;;;4.90;66.90;;;;;;5033923;28;20095;-73
2021/04/24 04:08:03;;;;;;;2.78;0.70;;;4.80;67.00;;;;;;5033925;28;20079;-73
2021/04/24 04:10:29;;;;;;;0.82;0.73;;;4.80;67.00;;;;;;5033086;28;20379;-73
2021/04/24 04:12:56;;;;;;;0.80;0.80;;;4.80;67.10;;;;;;5032537;28;20026;-73
2021/04/24 04:15:23;;;;;;;1.48;1.00;;;4.80;67.20;;;;;;5032484;28;20028;-73
2021/04/24 04:18:08;;;;;;;1.25;1.13;;;4.70;67.20;;;;;;5033730;28;20017;-73
2021/04/24 04:20:39;;;;;;;1.40;1.17;;;4.80;67.30;;;;;;5033713;28;20025;-73
2021/04/24 04:23:04;;;;;;;0.98;0.55;;;4.80;67.30;;;;;;5033651;28;20026;-73
2021/04/24 04:25:30;;;;;;;1.33;0.95;;;4.80;67.30;;;;;;5033121;28;20025;-73
2021/04/24 04:27:56;;;;;;;1.98;0.85;;;4.70;67.30;;;;;;5033550;28;20068;-73
2021/04/24 04:30:23;;;;;;;0.70;0.60;;;4.80;67.40;;;;;;5033330;28;20567;-73
2021/04/24 04:32:49;;;;;;;0.85;0.85;;;4.80;67.40;;;;;;5031800;28;20054;-73
2021/04/24 04:35:15;;;;;;;1.33;0.82;;;4.80;67.50;;;;;;5032922;28;20432;-74
2021/04/24 04:37:41;;;;;;;1.75;1.30;;;4.70;67.40;;;;;;5033409;28;20033;-73
2021/04/24 04:40:09;;;;;;;1.17;1.00;;;4.80;67.50;;;;;;5032793;28;20029;-73
2021/04/24 04:42:35;;;;;;;1.15;0.90;;;4.80;67.60;;;;;;5031924;28;20018;-73
2021/04/24 04:45:00;;;;;;;1.02;0.70;;;4.80;67.60;;;;;;5033594;28;20029;-73
2021/04/24 04:47:26;;;;;;;0.95;0.60;;;4.80;67.60;;;;;;5033274;28;20104;-73
2021/04/24 04:49:52;;;;;;;0.80;0.70;;;4.80;67.70;;;;;;5033180;28;20033;-73
2021/04/24 04:52:17;;;;;;;1.20;1.05;;;4.80;68.40;;;;;;5033264;28;20025;-73
2021/04/24 04:54:43;;;;;;;0.70;0.70;;;4.80;67.70;;;;;;5032658;28;20144;-73
2021/04/24 04:57:09;;;;;;;0.73;0.73;;;4.90;67.80;;;;;;5031979;28;20021;-73
2021/04/24 04:59:35;;;;;;;1.08;0.98;;;4.90;67.70;;;;;;5033114;28;20018;-73
2021/04/24 05:02:00;;;;;;;0.75;0.75;;;5.00;67.70;;;;;;5033180;28;20116;-73
2021/04/24 05:04:26;;;;;;;0.80;0.70;;;5.10;67.80;;;;;;5033132;28;20040;-74
2021/04/24 05:06:51;;;;;;;1.70;1.60;;;5.10;67.70;;;;;;5033062;28;20033;-73
2021/04/24 05:09:19;;;;;;;1.13;1.00;;;5.20;67.70;;;;;;5032510;28;20029;-73
2021/04/24 05:11:45;;;;;;;0.75;0.70;;;5.20;67.60;;;;;;5033061;28;20028;-73
2021/04/24 05:14:12;;;;;;;1.13;0.80;;;5.30;67.70;;;;;;5033031;28;20033;-73
2021/04/24 05:16:37;;;;;;;0.93;0.70;;;5.30;67.60;;;;;;5032996;28;20029;-73
2021/04/24 05:19:03;;;;;;;1.23;0.73;;;5.40;67.70;;;;;;5033010;28;20025;-73
2021/04/24 05:21:29;;;;;;;0.68;0.60;;;5.50;67.60;;;;;;5032989;28;20030;-73
2021/04/24 05:23:55;;;;;;;1.13;0.82;;;5.60;67.60;;;;;;5032508;28;20037;-73
2021/04/24 05:26:21;;;;;;;0.73;0.73;;;5.60;67.50;;;;;;5032852;28;20025;-73
2021/04/24 05:28:46;;;;;;;1.10;0.82;;;5.70;67.50;;;;;;5032801;28;20385;-73
2021/04/24 05:31:12;;;;;;;0.93;0.90;;;5.70;67.50;;;;;;5032778;28;20054;-73
2021/04/24 05:33:37;;;;;;;0.73;0.63;;;5.80;67.50;;;;;;5032851;28;20092;-73
2021/04/24 05:36:08;;;;;;;0.93;0.90;;;5.80;67.60;;;;;;5031561;28;20029;-73
2021/04/24 05:38:33;;;;;;;0.70;0.70;;;5.90;67.60;;;;;;5032458;28;20071;-73
2021/04/24 05:40:59;;;;;;;0.88;0.80;;;6.00;67.60;;;;;;5032863;28;20469;-73
2021/04/24 05:43:24;;;;;;;0.88;0.88;;;6.10;67.50;;;;;;5033066;28;20053;-73
2021/04/24 05:45:50;;;;;;;0.82;0.60;;;6.20;67.40;;;;;;5035071;28;20478;-73
2021/04/24 05:48:15;;;;;;;0.98;0.60;;;6.30;67.30;;;;;;5035125;28;20021;-73
2021/04/24 05:50:41;;;;;;;0.60;0.60;;;6.40;67.20;;;;;;5036439;28;20029;-73
2021/04/24 05:53:06;;;;;;;0.63;0.63;;;6.50;67.20;;;;;;5035903;28;20022;-73
2021/04/24 05:55:32;;;;;;;0.98;0.88;;;6.60;67.20;;;;;;5036332;28;20025;-73
2021/04/24 05:57:57;;;;;;;0.45;0.45;;;6.60;67.20;;;;;;5036264;28;20021;-73
2021/04/24 06:00:24;;;;;;;0.70;0.70;;;6.70;67.20;;;;;;5036199;28;20053;-73
2021/04/24 06:02:50;;;;;;;0.90;0.70;;;6.80;67.10;;;;;;5034855;28;20478;-73
2021/04/24 06:05:16;;;;;;;0.80;0.80;;;6.90;67.00;;;;;;5034895;28;20393;-72
2021/04/24 06:07:42;;;;;;;0.60;0.57;;;7.10;67.00;;;;;;5035557;28;20022;-73
2021/04/24 06:10:13;;;;;;;0.75;0.75;;;7.20;67.00;;;;;;5035849;28;20030;-73
2021/04/24 06:12:40;;;;;;;0.57;0.57;;;7.30;67.00;;;;;;5035960;28;20351;-73
2021/04/24 06:15:08;;;;;;;0.63;0.63;;;7.30;66.80;;;;;;5035949;28;20076;-73
2021/04/24 06:17:33;;;;;;;0.65;0.63;;;7.40;67.00;;;;;;5035781;28;20112;-73
2021/04/24 06:19:59;;;;;;;0.50;0.50;;;7.30;67.00;;;;;;5034379;28;20235;-73
2021/04/24 06:22:25;;;;;;;0.45;0.45;;;7.40;67.20;;;;;;5035310;28;20017;-73
2021/04/24 06:24:50;;;;;;;1.83;0.82;;;7.40;67.20;;;;;;5034448;28;20036;-73
2021/04/24 06:27:16;;;;;;;0.82;0.77;;;7.40;67.20;;;;;;5035614;28;20096;-73
2021/04/24 06:29:42;;;;;;;1.52;0.88;;;7.40;67.40;;;;;;5035380;28;20038;-73
2021/04/24 06:32:08;;;;;;;0.93;0.80;;;7.50;67.40;;;;;;5035444;28;20041;-72
2021/04/24 06:34:33;;;;;;;0.82;0.82;;;7.50;67.40;;;;;;5035185;28;20022;-72
2021/04/24 06:36:59;;;;;;;1.23;0.98;;;7.50;67.50;;;;;;5035041;28;20384;-72
2021/04/24 06:39:24;;;;;;;1.48;1.05;;;7.50;67.60;;;;;;5035614;28;20026;-72
2021/04/24 06:41:50;;;;;;;0.75;0.73;;;7.60;67.60;;;;;;5035413;28;20029;-72
2021/04/24 06:44:16;;;;;;;0.77;0.77;;;7.60;67.60;;;;;;5034172;28;20385;-73
2021/04/24 06:46:42;;;;;;;0.70;0.70;;;7.70;67.50;;;;;;5034010;28;20022;-73
2021/04/24 06:49:09;;;;;;;0.82;0.82;;;7.80;67.40;;;;;;5035063;28;20034;-73
2021/04/24 06:51:34;;;;;;;1.42;0.70;;;8.00;67.30;;;;;;5034730;28;20032;-73
2021/04/24 06:54:00;;;;;;;0.75;0.75;;;8.10;67.00;;;;;;5035099;28;20381;-73
2021/04/24 06:56:25;;;;;;;0.65;0.65;;;8.30;66.90;;;;;;5034230;28;20387;-73
2021/04/24 06:58:51;;;;;;;1.00;0.93;;;8.40;66.90;;;;;;5035018;28;20473;-73
2021/04/24 07:01:16;;;;;;;1.08;0.98;;;8.40;66.90;;;;;;5033811;28;20381;-73
2021/04/24 07:03:42;;;;;;;0.93;0.93;;;8.50;66.70;;;;;;5035113;28;20021;-73
2021/04/24 07:06:08;;;;;;;0.95;0.90;;;8.50;66.80;;;;;;5034499;28;20475;-73
2021/04/24 07:08:33;;;;;;;1.33;1.20;;;8.50;67.10;;;;;;5033527;28;20061;-73
2021/04/24 07:10:59;;;;;;;1.42;1.08;;;8.50;67.10;;;;;;5048190;22;20137;-77
2021/04/24 07:13:25;;;;;;;1.33;0.98;;;8.50;67.10;;;;;;5034823;28;20057;-77
2021/04/24 07:15:50;;;;;;;1.10;1.00;;;8.50;67.20;;;;;;5034766;28;20021;-75
2021/04/24 07:18:16;;;;;;;0.77;0.77;;;8.50;67.20;;;;;;5034607;28;20022;-75
2021/04/24 07:20:44;;;;;;;1.67;1.05;;;8.60;67.20;;;;;;5034072;28;20512;-75
2021/04/24 07:23:09;;;;;;;1.50;0.93;;;8.60;66.90;;;;;;5034520;28;20025;-76
2021/04/24 07:25:36;;;;;;;1.08;0.80;;;8.70;66.80;;;;;;5034359;28;20541;-74
2021/04/24 07:28:02;;;;;;;1.67;1.35;;;8.80;66.70;;;;;;5034629;28;20025;-74
2021/04/24 07:30:29;;;;;;;2.28;1.05;;;8.80;66.60;;;;;;5034270;28;20167;-76
2021/04/24 07:32:55;;;;;;;0.63;0.63;;;8.90;66.40;;;;;;5033795;28;20075;-77
2021/04/24 07:35:20;;;;;;;0.70;0.70;;;8.80;66.20;;;;;;5034409;28;20106;-77
2021/04/24 07:37:46;;;;;;;1.92;1.02;;;8.80;66.10;;;;;;5034315;28;20018;-77
2021/04/24 07:40:14;;;;;;;1.00;1.00;;;8.80;66.10;;;;;;5034235;28;20403;-78
2021/04/24 07:42:40;;;;;;;1.20;0.73;;;8.90;66.10;;;;;;5034134;28;20049;-76
2021/04/24 07:45:06;;;;;;;1.05;1.00;;;9.00;65.90;;;;;;5034206;28;20069;-76
2021/04/24 07:47:32;;;;;;;1.00;0.90;;;9.00;65.70;;;;;;5033815;28;20045;-78
2021/04/24 07:49:58;;;;;;;0.88;0.80;;;9.10;65.60;;;;;;5032743;28;20571;-76
2021/04/24 07:52:23;;;;;;;1.58;1.08;;;9.10;65.30;;;;;;5034152;28;20045;-77
2021/04/24 07:54:49;;;;;;;1.30;1.00;;;9.20;65.30;;;;;;5033898;28;20029;-78
2021/04/24 07:57:16;;;;;;;0.60;0.60;;;9.30;65.20;;;;;;5033981;28;20097;-77
2021/04/24 07:59:42;;;;;;;0.90;0.80;;;9.40;65.00;;;;;;5033999;28;20026;-77
2021/04/24 08:02:09;;;;;;;0.65;0.65;;;9.50;64.80;;;;;;5033403;28;20029;-77
2021/04/24 08:04:35;;;;;;;0.85;0.85;;;9.60;64.50;;;;;;5033877;28;20079;-78
2021/04/24 08:07:01;;;;;;;0.65;0.65;;;9.60;64.30;;;;;;5033697;28;20030;-77
2021/04/24 08:09:27;;;;;;;0.40;0.40;;;9.70;64.30;;;;;;5033564;28;20052;-78
2021/04/24 08:11:53;;;;;;;0.68;0.50;;;9.80;64.10;;;;;;5033395;28;20049;-78
2021/04/24 08:14:19;;;;;;;1.13;0.75;;;9.80;64.00;;;;;;5033552;28;20028;-77
2021/04/24 08:16:45;;;;;;;0.68;0.68;;;9.80;63.80;;;;;;5032957;28;20021;-77
2021/04/24 08:19:11;;;;;;;0.77;0.77;;;10.00;63.70;;;;;;5033733;28;20067;-78
2021/04/24 08:21:36;;;;;;;0.95;0.85;;;10.10;63.50;;;;;;5033443;28;20446;-80
2021/04/24 08:24:02;;;;;;;0.57;0.57;;;10.10;63.30;;;;;;5033411;28;20032;-77
2021/04/24 08:26:30;;;;;;;0.60;0.60;;;10.20;63.20;;;;;;5033625;28;20014;-77
2021/04/24 08:28:56;;;;;;;0.60;0.60;;;10.30;63.20;;;;;;5033653;28;20028;-78
2021/04/24 08:31:21;;;;;;;1.00;0.88;;;10.30;62.90;;;;;;5032804;28;20037;-77
2021/04/24 08:33:47;;;;;;;0.50;0.50;;;10.30;62.90;;;;;;5033415;28;20470;-77
2021/04/24 08:36:13;;;;;;;0.93;0.80;;;10.30;63.00;;;;;;5032162;28;20029;-77
2021/04/24 08:38:38;;;;;;;1.10;1.00;;;10.40;62.90;;;;;;5033371;28;20033;-78
2021/04/24 08:41:05;;;;;;;0.82;0.63;;;10.50;62.60;;;;;;5033338;28;20075;-77
2021/04/24 08:43:32;;;;;;;0.80;0.80;;;10.50;62.50;;;;;;5033250;28;20033;-78
2021/04/24 08:46:01;;;;;;;1.70;0.77;;;10.60;62.40;;;;;;5032497;28;20021;-78
2021/04/24 08:48:27;;;;;;;1.33;0.90;;;10.70;62.20;;;;;;5033145;28;20029;-77
2021/04/24 08:50:54;;;;;;;0.73;0.70;;;10.80;62.00;;;;;;5033143;28;20787;-78
2021/04/24 08:53:21;;;;;;;1.33;1.00;;;10.90;61.90;;;;;;5033120;28;20060;-78
2021/04/24 08:55:47;;;;;;;1.17;0.80;;;10.90;61.90;;;;;;5033174;28;20033;-79
2021/04/24 08:58:13;;;;;;;1.73;1.10;;;10.80;62.00;;;;;;5033034;28;20017;-78
2021/04/24 09:00:42;;;;;;;1.38;1.20;;;10.90;61.90;;;;;;5032710;28;20056;-77
2021/04/24 09:03:11;;;;;;;1.02;0.90;;;10.80;61.90;;;;;;5033003;28;20385;-77
2021/04/24 09:05:37;;;;;;;1.17;1.08;;;10.90;61.90;;;;;;5033428;28;20025;-77
2021/04/24 09:08:08;;;;;;;0.73;0.73;;;10.90;61.80;;;;;;5032741;28;20017;-78
2021/04/24 09:10:42;;;;;;;0.68;0.68;;;10.90;61.60;;;;;;5033744;28;20557;-78
2021/04/24 09:13:08;;;;;;;0.93;0.90;;;11.10;61.50;;;;;;5033047;28;20029;-78
2021/04/24 09:15:34;;;;;;;0.95;0.80;;;11.20;61.10;;;;;;5032320;28;20033;-78
2021/04/24 09:18:03;;;;;;;0.85;0.85;;;11.20;61.10;;;;;;5032766;28;20109;-77
2021/04/24 09:20:31;;;;;;;0.73;0.70;;;11.30;60.90;;;;;;5034789;28;20041;-77
2021/04/24 09:23:06;;;;;;;1.02;1.00;;;11.40;60.70;;;;;;5036797;28;20032;-77
2021/04/24 09:25:41;;;;;;;1.92;0.80;;;11.50;60.60;;;;;;5036774;28;20083;-77
2021/04/24 09:28:09;;;;;;;0.70;0.70;;;11.50;60.40;;;;;;5035385;28;20168;-78
2021/04/24 09:30:38;;;;;;;0.70;0.70;;;11.50;60.40;;;;;;5036081;28;20481;-79
2021/04/24 09:33:12;;;;;;;1.15;0.80;;;11.50;60.30;;;;;;5036657;28;20078;-78
2021/04/24 09:35:59;;;;;;;1.10;0.80;;;11.60;60.10;;;;;;5036652;28;20386;-77
2021/04/24 09:38:31;;;;;;;0.68;0.68;;;11.70;60.00;;;;;;5034805;28;20055;-78
2021/04/24 09:41:16;;;;;;;0.70;0.68;;;11.70;59.90;;;;;;5036414;28;20017;-78
2021/04/24 09:44:09;;;;;;;0.82;0.70;;;11.80;59.90;;;;;;5034844;28;20024;-78
2021/04/24 09:46:53;;;;;;;1.92;0.98;;;11.90;59.70;;;;;;5031922;28;20033;-78
2021/04/24 09:49:24;;;;;;;0.47;0.40;;;11.90;59.70;;;;;;5036122;28;20505;-78
2021/04/24 09:51:56;;;;;;;0.90;0.73;;;11.90;59.70;;;;;;5036312;28;20474;-79
2021/04/24 09:54:41;;;;;;;1.33;1.05;;;12.10;59.40;;;;;;5036476;28;20064;-78
2021/04/24 09:57:15;;;;;;;0.60;0.60;;;12.20;59.20;;;;;;5036455;28;20025;-78
2021/04/24 10:00:14;;;;;;;0.73;0.60;;;12.30;59.20;;;;;;5035841;28;20032;-79
2021/04/24 10:02:42;;;;;;;0.67;0.67;;;12.40;59.20;;;;;;5027726;28;20037;-79
2021/04/24 10:05:17;;;;;;;0.85;0.70;;;12.40;59.70;;;;;;5036187;28;20029;-80
2021/04/24 10:07:45;;;;;;;1.00;0.90;;;12.60;58.70;;;;;;5035950;28;20022;-79
2021/04/24 10:10:13;;;;;;;0.63;0.57;;;12.50;58.50;;;;;;5035606;28;20045;-79
2021/04/24 10:12:39;;;;;;;0.73;0.57;;;12.60;58.60;;;;;;5035675;28;20497;-79
2021/04/24 10:15:06;;;;;;;0.57;0.57;;;12.60;58.30;;;;;;5036057;28;20034;-79
2021/04/24 10:17:33;;;;;;;0.63;0.63;;;12.70;58.40;;;;;;5035792;28;20024;-78
2021/04/24 10:20:01;;;;;;;1.63;1.13;;;12.80;58.10;;;;;;5035884;28;20112;-78
2021/04/24 10:22:26;;;;;;;1.48;1.00;;;12.80;57.90;;;;;;5035904;28;20025;-78
2021/04/24 10:24:53;;;;;;;0.90;0.90;;;12.80;57.80;;;;;;5035901;28;20044;-80
2021/04/24 10:27:21;;;;;;;1.15;0.85;;;12.70;57.90;;;;;;5035276;28;20029;-79
2021/04/24 10:29:47;;;;;;;1.08;0.93;;;12.80;57.90;;;;;;5035508;28;20075;-79
2021/04/24 10:32:14;;;;;;;1.27;1.10;;;13.00;57.60;;;;;;5034256;28;20025;-79
2021/04/24 10:34:39;;;;;;;1.40;0.95;;;13.10;57.30;;;;;;5035670;28;20036;-79
2021/04/24 10:37:06;;;;;;;1.10;0.98;;;13.20;57.20;;;;;;5035665;28;20021;-79
2021/04/24 10:39:34;;;;;;;0.63;0.63;;;13.30;57.00;;;;;;5035547;28;20443;-78
2021/04/24 10:42:05;;;;;;;1.20;0.80;;;13.30;57.50;;;;;;5035151;28;20474;-78
2021/04/24 10:45:06;;;;;;;0.60;0.60;;;13.40;56.80;;;;;;5035260;28;20029;-78
2021/04/24 10:47:38;;;;;;;0.55;0.50;;;13.50;56.50;;;;;;5035521;28;20021;-79
2021/04/24 10:50:07;;;;;;;1.00;0.52;;;13.50;56.30;;;;;;5035262;28;20386;-79
2021/04/24 10:52:33;;;;;;;0.63;0.63;;;13.70;56.20;;;;;;5035380;28;20017;-78
2021/04/24 10:55:14;;;;;;;0.57;0.57;;;13.90;55.90;;;;;;5035196;28;20389;-79
2021/04/24 10:57:59;;;;;;;0.47;0.47;;;14.10;55.60;;;;;;5034864;28;20093;-80
2021/04/24 11:00:47;;;;;;;0.73;0.70;;;14.40;55.30;;;;;;5035219;28;20026;-74
2021/04/24 11:03:46;;;;;;;0.60;0.60;;;14.60;55.30;;;;;;5035057;28;20101;-76
2021/04/24 11:06:22;;;;;;;0.73;0.73;;;14.80;54.90;;;;;;5035129;28;20044;-76
2021/04/24 11:08:49;;;;;;;0.55;0.50;;;15.00;54.90;;;;;;5035139;28;20531;-74
2021/04/24 11:11:22;;;;;;;1.33;0.80;;;15.10;54.70;;;;;;5034217;28;20077;-76
2021/04/24 11:13:54;;;;;;;0.60;0.60;;;15.20;54.40;;;;;;5034874;28;20018;-74
2021/04/24 11:16:21;;;;;;;0.65;0.65;;;15.20;54.40;;;;;;5034959;28;20060;-76
2021/04/24 11:18:50;;;;;;;0.65;0.57;;;14.90;54.80;;;;;;5034821;28;20028;-76
2021/04/24 11:21:18;;;;;;;0.98;0.90;;;15.00;55.00;;;;;;5035008;28;20041;-76
2021/04/24 11:23:48;;;;;;;0.50;0.50;;;15.10;54.40;;;;;;5034880;28;20034;-76
2021/04/24 11:26:15;;;;;;;2.28;1.23;;;14.80;54.50;;;;;;5032879;28;20067;-76
2021/04/24 11:28:57;;;;;;;0.50;0.50;;;14.80;54.60;;;;;;5034699;28;20036;-74
2021/04/24 11:31:44;;;;;;;1.17;0.90;;;14.90;54.40;;;;;;5034495;28;20075;-76
2021/04/24 11:34:35;;;;;;;0.95;0.80;;;15.00;54.10;;;;;;5034517;28;20104;-76
2021/04/24 11:37:20;;;;;;;1.85;1.10;;;15.10;53.90;;;;;;5034600;28;20462;-74
2021/04/24 11:40:28;;;;;;;1.85;1.20;;;15.00;53.70;;;;;;5034176;28;20033;-77
2021/04/24 11:43:04;;;;;;;0.90;0.73;;;15.10;53.90;;;;;;5033779;28;20028;-75
2021/04/24 11:45:43;;;;;;;0.95;0.90;;;15.40;53.30;;;;;;5034527;28;20101;-75
2021/04/24 11:48:09;;;;;;;1.00;0.90;;;15.60;52.80;;;;;;5034553;28;20079;-75
2021/04/24 11:50:40;;;;;;;1.50;1.40;;;15.80;52.70;;;;;;5034595;28;20429;-74
2021/04/24 11:53:06;;;;;;;1.38;1.27;;;15.90;52.30;;;;;;5034787;28;20025;-75
2021/04/24 11:55:32;;;;;;;1.23;1.05;;;15.80;51.70;;;;;;5034133;28;20021;-74
2021/04/24 11:58:09;;;;;;;1.95;1.30;;;15.60;52.00;;;;;;5032624;28;20017;-75
2021/04/24 12:00:36;;;;;;;3.30;1.75;;;15.50;52.20;;;;;;5034142;28;20074;-77
2021/04/24 12:03:03;;;;;;;2.28;1.45;;;15.50;52.00;;;;;;5034023;28;20097;-78
2021/04/24 12:05:28;;;;;;;2.05;1.27;;;15.40;52.30;;;;;;5034058;28;20026;-77
2021/04/24 12:07:54;;;;;;;1.40;1.20;;;15.50;52.20;;;;;;5033790;28;20497;-76
2021/04/24 12:10:27;;;;;;;1.75;1.40;;;15.30;52.20;;;;;;5033136;28;20085;-78
2021/04/24 12:12:53;;;;;;;0.95;0.95;;;15.40;52.30;;;;;;5033749;28;20014;-77
2021/04/24 12:15:27;;;;;;;2.03;1.55;;;15.40;52.30;;;;;;5033794;28;20096;-77
2021/04/24 12:17:56;;;;;;;1.52;1.10;;;15.30;52.30;;;;;;5033611;28;20029;-78
2021/04/24 12:20:24;;;;;;;0.98;0.90;;;15.30;52.40;;;;;;5033710;28;20029;-78
2021/04/24 12:22:50;;;;;;;1.77;1.13;;;15.20;52.40;;;;;;5033048;28;20470;-79
2021/04/24 12:25:17;;;;;;;0.93;0.73;;;15.40;52.30;;;;;;5033507;28;20035;-77
2021/04/24 12:27:45;;;;;;;1.13;1.00;;;15.40;52.70;;;;;;5033566;28;20100;-77
2021/04/24 12:30:17;;;;;;;1.52;0.95;;;15.40;52.20;;;;;;5033510;28;20029;-78
2021/04/24 12:33:03;;;;;;;1.60;1.13;;;15.50;52.10;;;;;;5033374;28;20022;-79
2021/04/24 12:35:32;;;;;;;1.13;0.95;;;15.40;52.00;;;;;;5026355;28;20042;-78
2021/04/24 12:38:16;;;;;;;2.50;1.30;;;15.30;52.30;;;;;;5032757;28;20064;-76
2021/04/24 12:40:47;;;;;;;1.83;1.10;;;15.20;52.10;;;;;;5033414;28;20025;-78
2021/04/24 12:43:19;;;;;;;1.65;1.35;;;15.00;52.40;;;;;;5033455;28;20478;-79
2021/04/24 12:45:47;;;;;;;1.02;0.88;;;15.00;52.50;;;;;;5033324;28;20036;-79
2021/04/24 12:48:21;;;;;;;1.20;1.02;;;15.00;52.50;;;;;;5033490;28;20022;-79
2021/04/24 12:50:49;;;;;;;1.77;1.40;;;14.90;52.50;;;;;;5033212;28;20124;-78
2021/04/24 12:53:40;;;;;;;1.42;0.90;;;14.80;52.80;;;;;;5032560;28;20027;-78
2021/04/24 12:56:31;;;;;;;3.80;1.80;;;14.80;52.60;;;;;;5030335;28;20029;-77
2021/04/24 12:59:03;;;;;;;1.70;1.00;;;14.80;52.40;;;;;;5020999;28;20033;-78